sensor_id;sensor_type;location;lat;lon;timestamp;temperature;humidity
23259;DHT22;11798;51.528;7.240;2023-03-12T00:02:07;2.10;99.90
23259;DHT22;11798;51.528;7.240;2023-03-12T00:04:33;2.10;99.90
23259;DHT22;11798;51.528;7.240;2023-03-12T00:07:03;2.10;99.90
23259;DHT22;11798;51.528;7.240;2023-03-12T00:09:34;2.10;99.90
23259;DHT22;11798;51.528;7.240;2023-03-12T00:11:59;2.00;99.90
23259;DHT22;11798;51.528;7.240;2023-03-12T00:14:25;2.00;99.90
23259;DHT22;11798;51.528;7.240;2023-03-12T00:16:51;2.00;99.90
23259;DHT22;11798;51.528;7.240;2023-03-12T00:19:16;2.00;99.90
23259;DHT22;11798;51.528;7.240;2023-03-12T00:21:42;1.90;99.90
23259;DHT22;11798;51.528;7.240;2023-03-12T00:24:08;1.90;99.90
23259;DHT22;11798;51.528;7.240;2023-03-12T00:26:33;1.90;99.90
23259;DHT22;11798;51.528;7.240;2023-03-12T00:28:59;1.80;99.90
23259;DHT22;11798;51.528;7.240;2023-03-12T00:31:27;1.90;99.90
23259;DHT22;11798;51.528;7.240;2023-03-12T00:33:54;2.00;99.90
23259;DHT22;11798;51.528;7.240;2023-03-12T00:36:22;1.90;99.90
23259;DHT22;11798;51.528;7.240;2023-03-12T00:38:49;1.90;99.90
23259;DHT22;11798;51.528;7.240;2023-03-12T00:41:15;1.90;99.90
23259;DHT22;11798;51.528;7.240;2023-03-12T00:43:41;1.90;99.90
23259;DHT22;11798;51.528;7.240;2023-03-12T00:46:07;1.90;99.90
23259;DHT22;11798;51.528;7.240;2023-03-12T00:48:33;2.00;99.90
23259;DHT22;11798;51.528;7.240;2023-03-12T00:50:58;2.00;99.90
23259;DHT22;11798;51.528;7.240;2023-03-12T00:53:24;2.00;99.90
23259;DHT22;11798;51.528;7.240;2023-03-12T00:55:49;2.00;99.90
23259;DHT22;11798;51.528;7.240;2023-03-12T00:58:15;2.00;99.90
23259;DHT22;11798;51.528;7.240;2023-03-12T01:00:41;2.00;99.90
23259;DHT22;11798;51.528;7.240;2023-03-12T01:03:06;2.00;99.90
23259;DHT22;11798;51.528;7.240;2023-03-12T01:05:32;2.00;99.90
23259;DHT22;11798;51.528;7.240;2023-03-12T01:08:03;2.00;99.90
23259;DHT22;11798;51.528;7.240;2023-03-12T01:10:29;2.10;99.90
23259;DHT22;11798;51.528;7.240;2023-03-12T01:12:55;2.00;99.90
23259;DHT22;11798;51.528;7.240;2023-03-12T01:15:21;2.10;99.90
23259;DHT22;11798;51.528;7.240;2023-03-12T01:17:47;2.10;99.90
23259;DHT22;11798;51.528;7.240;2023-03-12T01:20:14;2.10;99.90
23259;DHT22;11798;51.528;7.240;2023-03-12T01:22:39;2.10;99.90
23259;DHT22;11798;51.528;7.240;2023-03-12T01:25:06;2.10;99.90
23259;DHT22;11798;51.528;7.240;2023-03-12T01:27:32;2.10;99.90
23259;DHT22;11798;51.528;7.240;2023-03-12T01:29:57;2.10;99.90
23259;DHT22;11798;51.528;7.240;2023-03-12T01:32:23;2.20;99.90
23259;DHT22;11798;51.528;7.240;2023-03-12T01:34:48;2.20;99.90
23259;DHT22;11798;51.528;7.240;2023-03-12T01:37:14;2.20;99.90
23259;DHT22;11798;51.528;7.240;2023-03-12T01:39:40;2.20;99.90
23259;DHT22;11798;51.528;7.240;2023-03-12T01:42:06;2.20;99.90
23259;DHT22;11798;51.528;7.240;2023-03-12T01:45:01;2.20;99.90
23259;DHT22;11798;51.528;7.240;2023-03-12T01:47:28;2.30;99.90
23259;DHT22;11798;51.528;7.240;2023-03-12T01:49:57;2.20;99.90
23259;DHT22;11798;51.528;7.240;2023-03-12T01:52:28;2.30;99.90
23259;DHT22;11798;51.528;7.240;2023-03-12T01:57:34;2.30;99.90
23259;DHT22;11798;51.528;7.240;2023-03-12T02:00:07;2.30;99.90
23259;DHT22;11798;51.528;7.240;2023-03-12T02:02:34;2.40;99.90
23259;DHT22;11798;51.528;7.240;2023-03-12T02:05:10;2.40;99.90
23259;DHT22;11798;51.528;7.240;2023-03-12T02:07:39;2.40;99.90
23259;DHT22;11798;51.528;7.240;2023-03-12T02:10:05;2.40;99.90
23259;DHT22;11798;51.528;7.240;2023-03-12T02:12:31;2.50;99.90
23259;DHT22;11798;51.528;7.240;2023-03-12T02:14:56;2.50;99.90
23259;DHT22;11798;51.528;7.240;2023-03-12T02:17:22;2.50;99.90
23259;DHT22;11798;51.528;7.240;2023-03-12T02:22:40;2.50;99.90
23259;DHT22;11798;51.528;7.240;2023-03-12T02:27:51;2.50;99.90
23259;DHT22;11798;51.528;7.240;2023-03-12T02:30:17;2.50;99.90
23259;DHT22;11798;51.528;7.240;2023-03-12T02:32:44;2.50;99.90
23259;DHT22;11798;51.528;7.240;2023-03-12T02:35:12;2.50;99.90
23259;DHT22;11798;51.528;7.240;2023-03-12T02:40:45;2.50;99.90
23259;DHT22;11798;51.528;7.240;2023-03-12T02:43:12;2.50;99.90
23259;DHT22;11798;51.528;7.240;2023-03-12T02:45:38;2.50;99.90
23259;DHT22;11798;51.528;7.240;2023-03-12T02:48:07;2.50;99.90
23259;DHT22;11798;51.528;7.240;2023-03-12T02:50:33;2.50;99.90
23259;DHT22;11798;51.528;7.240;2023-03-12T02:52:59;2.60;99.90
23259;DHT22;11798;51.528;7.240;2023-03-12T02:55:24;2.50;99.90
23259;DHT22;11798;51.528;7.240;2023-03-12T02:57:50;2.60;99.90
23259;DHT22;11798;51.528;7.240;2023-03-12T03:00:19;2.60;99.90
23259;DHT22;11798;51.528;7.240;2023-03-12T03:02:45;2.60;99.90
23259;DHT22;11798;51.528;7.240;2023-03-12T03:05:11;2.60;99.90
23259;DHT22;11798;51.528;7.240;2023-03-12T03:07:37;2.60;99.90
23259;DHT22;11798;51.528;7.240;2023-03-12T03:10:04;2.60;99.90
23259;DHT22;11798;51.528;7.240;2023-03-12T03:12:31;2.60;99.90
23259;DHT22;11798;51.528;7.240;2023-03-12T03:14:57;2.60;99.90
23259;DHT22;11798;51.528;7.240;2023-03-12T03:17:23;2.50;99.90
23259;DHT22;11798;51.528;7.240;2023-03-12T03:19:50;2.50;99.90
23259;DHT22;11798;51.528;7.240;2023-03-12T03:22:16;2.50;99.90
23259;DHT22;11798;51.528;7.240;2023-03-12T03:24:42;2.50;99.90
23259;DHT22;11798;51.528;7.240;2023-03-12T03:27:08;2.50;99.90
23259;DHT22;11798;51.528;7.240;2023-03-12T03:29:34;2.50;99.90
23259;DHT22;11798;51.528;7.240;2023-03-12T03:31:59;2.50;99.90
23259;DHT22;11798;51.528;7.240;2023-03-12T03:34:25;2.50;99.90
23259;DHT22;11798;51.528;7.240;2023-03-12T03:36:51;2.40;99.90
23259;DHT22;11798;51.528;7.240;2023-03-12T03:39:16;2.40;99.90
23259;DHT22;11798;51.528;7.240;2023-03-12T03:41:42;2.40;99.90
23259;DHT22;11798;51.528;7.240;2023-03-12T03:44:08;2.40;99.90
23259;DHT22;11798;51.528;7.240;2023-03-12T03:46:34;2.40;99.90
23259;DHT22;11798;51.528;7.240;2023-03-12T03:49:01;2.40;99.90
23259;DHT22;11798;51.528;7.240;2023-03-12T03:51:27;2.40;99.90
23259;DHT22;11798;51.528;7.240;2023-03-12T03:53:52;2.40;99.90
23259;DHT22;11798;51.528;7.240;2023-03-12T03:56:18;2.40;99.90
23259;DHT22;11798;51.528;7.240;2023-03-12T03:58:44;2.40;99.90
23259;DHT22;11798;51.528;7.240;2023-03-12T04:01:12;2.40;99.90
23259;DHT22;11798;51.528;7.240;2023-03-12T04:03:38;2.40;99.90
23259;DHT22;11798;51.528;7.240;2023-03-12T04:06:05;2.50;99.90
23259;DHT22;11798;51.528;7.240;2023-03-12T04:08:32;2.50;99.90
23259;DHT22;11798;51.528;7.240;2023-03-12T04:11:06;2.50;99.90
23259;DHT22;11798;51.528;7.240;2023-03-12T04:13:32;2.50;99.90
23259;DHT22;11798;51.528;7.240;2023-03-12T04:15:57;2.50;99.90
23259;DHT22;11798;51.528;7.240;2023-03-12T04:18:23;2.50;99.90
23259;DHT22;11798;51.528;7.240;2023-03-12T04:20:49;2.50;99.90
23259;DHT22;11798;51.528;7.240;2023-03-12T04:23:15;2.50;99.90
23259;DHT22;11798;51.528;7.240;2023-03-12T04:25:40;2.50;99.90
23259;DHT22;11798;51.528;7.240;2023-03-12T04:28:06;2.60;99.90
23259;DHT22;11798;51.528;7.240;2023-03-12T04:30:32;2.60;99.90
23259;DHT22;11798;51.528;7.240;2023-03-12T04:32:58;2.60;99.90
23259;DHT22;11798;51.528;7.240;2023-03-12T04:35:24;2.60;99.90
23259;DHT22;11798;51.528;7.240;2023-03-12T04:37:50;2.70;99.90
23259;DHT22;11798;51.528;7.240;2023-03-12T04:40:16;2.70;99.90
23259;DHT22;11798;51.528;7.240;2023-03-12T04:42:43;2.70;99.90
23259;DHT22;11798;51.528;7.240;2023-03-12T04:45:09;2.70;99.90
23259;DHT22;11798;51.528;7.240;2023-03-12T04:47:35;2.70;99.90
23259;DHT22;11798;51.528;7.240;2023-03-12T04:50:01;2.70;99.90
23259;DHT22;11798;51.528;7.240;2023-03-12T04:52:26;2.70;99.90
23259;DHT22;11798;51.528;7.240;2023-03-12T04:54:53;2.80;99.90
23259;DHT22;11798;51.528;7.240;2023-03-12T04:57:19;2.80;99.90
23259;DHT22;11798;51.528;7.240;2023-03-12T04:59:44;2.80;99.90
23259;DHT22;11798;51.528;7.240;2023-03-12T05:02:10;2.80;99.90
23259;DHT22;11798;51.528;7.240;2023-03-12T05:04:35;2.80;99.90
23259;DHT22;11798;51.528;7.240;2023-03-12T05:07:02;2.80;99.90
23259;DHT22;11798;51.528;7.240;2023-03-12T05:09:27;2.80;99.90
23259;DHT22;11798;51.528;7.240;2023-03-12T05:11:53;2.80;99.90
23259;DHT22;11798;51.528;7.240;2023-03-12T05:14:19;2.80;99.90
23259;DHT22;11798;51.528;7.240;2023-03-12T05:16:44;2.90;99.90
23259;DHT22;11798;51.528;7.240;2023-03-12T05:19:10;3.00;99.90
23259;DHT22;11798;51.528;7.240;2023-03-12T05:21:36;2.90;99.90
23259;DHT22;11798;51.528;7.240;2023-03-12T05:24:01;2.90;99.90
23259;DHT22;11798;51.528;7.240;2023-03-12T05:26:29;2.90;99.90
23259;DHT22;11798;51.528;7.240;2023-03-12T05:28:59;3.00;99.90
23259;DHT22;11798;51.528;7.240;2023-03-12T05:31:26;3.00;99.90
23259;DHT22;11798;51.528;7.240;2023-03-12T05:33:52;3.00;99.90
23259;DHT22;11798;51.528;7.240;2023-03-12T05:36:18;3.00;99.90
23259;DHT22;11798;51.528;7.240;2023-03-12T05:38:44;3.00;99.90
23259;DHT22;11798;51.528;7.240;2023-03-12T05:41:21;3.00;99.90
23259;DHT22;11798;51.528;7.240;2023-03-12T05:43:47;3.10;99.90
23259;DHT22;11798;51.528;7.240;2023-03-12T05:46:12;3.00;99.90
23259;DHT22;11798;51.528;7.240;2023-03-12T05:48:38;3.10;99.90
23259;DHT22;11798;51.528;7.240;2023-03-12T05:51:04;3.10;99.90
23259;DHT22;11798;51.528;7.240;2023-03-12T05:53:30;3.10;99.90
23259;DHT22;11798;51.528;7.240;2023-03-12T05:56:04;3.10;99.90
23259;DHT22;11798;51.528;7.240;2023-03-12T05:58:31;3.20;99.90
23259;DHT22;11798;51.528;7.240;2023-03-12T06:00:56;3.20;99.90
23259;DHT22;11798;51.528;7.240;2023-03-12T06:03:22;3.20;99.90
23259;DHT22;11798;51.528;7.240;2023-03-12T06:05:48;3.20;99.90
23259;DHT22;11798;51.528;7.240;2023-03-12T06:08:14;3.10;99.90
23259;DHT22;11798;51.528;7.240;2023-03-12T06:10:39;3.10;99.90
23259;DHT22;11798;51.528;7.240;2023-03-12T06:13:05;3.20;99.90
23259;DHT22;11798;51.528;7.240;2023-03-12T06:15:31;3.20;99.90
23259;DHT22;11798;51.528;7.240;2023-03-12T06:17:57;3.30;99.90
23259;DHT22;11798;51.528;7.240;2023-03-12T06:20:23;3.20;99.90
23259;DHT22;11798;51.528;7.240;2023-03-12T06:22:48;3.30;99.90
23259;DHT22;11798;51.528;7.240;2023-03-12T06:25:14;3.30;99.90
23259;DHT22;11798;51.528;7.240;2023-03-12T06:27:40;3.20;99.90
23259;DHT22;11798;51.528;7.240;2023-03-12T06:30:06;3.20;99.90
23259;DHT22;11798;51.528;7.240;2023-03-12T06:32:32;3.20;99.90
23259;DHT22;11798;51.528;7.240;2023-03-12T06:34:58;3.10;99.90
23259;DHT22;11798;51.528;7.240;2023-03-12T06:37:29;3.20;99.90
23259;DHT22;11798;51.528;7.240;2023-03-12T06:39:55;3.20;99.90
23259;DHT22;11798;51.528;7.240;2023-03-12T06:42:20;3.30;99.90
23259;DHT22;11798;51.528;7.240;2023-03-12T06:44:47;3.30;99.90
23259;DHT22;11798;51.528;7.240;2023-03-12T06:47:13;3.30;99.90
23259;DHT22;11798;51.528;7.240;2023-03-12T06:49:38;3.30;99.90
23259;DHT22;11798;51.528;7.240;2023-03-12T06:52:04;3.30;99.90
23259;DHT22;11798;51.528;7.240;2023-03-12T06:54:30;3.40;99.90
23259;DHT22;11798;51.528;7.240;2023-03-12T06:56:56;3.40;99.90
23259;DHT22;11798;51.528;7.240;2023-03-12T06:59:24;3.40;99.90
23259;DHT22;11798;51.528;7.240;2023-03-12T07:01:49;3.40;99.90
23259;DHT22;11798;51.528;7.240;2023-03-12T07:04:15;3.30;99.90
23259;DHT22;11798;51.528;7.240;2023-03-12T07:06:42;3.30;99.90
23259;DHT22;11798;51.528;7.240;2023-03-12T07:09:07;3.40;99.90
23259;DHT22;11798;51.528;7.240;2023-03-12T07:11:33;3.30;99.90
23259;DHT22;11798;51.528;7.240;2023-03-12T07:13:59;3.40;99.90
23259;DHT22;11798;51.528;7.240;2023-03-12T07:16:26;3.40;99.90
23259;DHT22;11798;51.528;7.240;2023-03-12T07:18:51;3.40;99.90
23259;DHT22;11798;51.528;7.240;2023-03-12T07:21:17;3.40;99.90
23259;DHT22;11798;51.528;7.240;2023-03-12T07:23:48;3.40;99.90
23259;DHT22;11798;51.528;7.240;2023-03-12T07:26:14;3.40;99.90
23259;DHT22;11798;51.528;7.240;2023-03-12T07:28:40;3.30;99.90
23259;DHT22;11798;51.528;7.240;2023-03-12T07:31:06;3.40;99.90
23259;DHT22;11798;51.528;7.240;2023-03-12T07:33:32;3.50;99.90
23259;DHT22;11798;51.528;7.240;2023-03-12T07:35:58;3.50;99.90
23259;DHT22;11798;51.528;7.240;2023-03-12T07:38:24;3.50;99.90
23259;DHT22;11798;51.528;7.240;2023-03-12T07:40:51;3.50;99.90
23259;DHT22;11798;51.528;7.240;2023-03-12T07:43:17;3.60;99.90
23259;DHT22;11798;51.528;7.240;2023-03-12T07:45:43;3.50;99.90
23259;DHT22;11798;51.528;7.240;2023-03-12T07:48:09;3.50;99.90
23259;DHT22;11798;51.528;7.240;2023-03-12T07:50:35;3.50;99.90
23259;DHT22;11798;51.528;7.240;2023-03-12T07:53:02;3.60;99.90
23259;DHT22;11798;51.528;7.240;2023-03-12T07:55:29;3.70;99.90
23259;DHT22;11798;51.528;7.240;2023-03-12T07:57:55;3.60;99.90
23259;DHT22;11798;51.528;7.240;2023-03-12T08:00:23;3.70;99.90
23259;DHT22;11798;51.528;7.240;2023-03-12T08:02:49;3.80;99.90
23259;DHT22;11798;51.528;7.240;2023-03-12T08:05:15;3.80;99.90
23259;DHT22;11798;51.528;7.240;2023-03-12T08:07:40;3.80;99.90
23259;DHT22;11798;51.528;7.240;2023-03-12T08:10:08;3.80;99.90
23259;DHT22;11798;51.528;7.240;2023-03-12T08:12:34;3.80;99.90
23259;DHT22;11798;51.528;7.240;2023-03-12T08:15:02;3.80;99.90
23259;DHT22;11798;51.528;7.240;2023-03-12T08:17:28;3.90;99.90
23259;DHT22;11798;51.528;7.240;2023-03-12T08:19:54;3.90;99.90
23259;DHT22;11798;51.528;7.240;2023-03-12T08:22:19;4.00;99.90
23259;DHT22;11798;51.528;7.240;2023-03-12T08:24:45;4.10;99.90
23259;DHT22;11798;51.528;7.240;2023-03-12T08:27:11;4.20;99.90
23259;DHT22;11798;51.528;7.240;2023-03-12T08:29:37;4.20;99.90
23259;DHT22;11798;51.528;7.240;2023-03-12T08:32:03;4.20;99.90
23259;DHT22;11798;51.528;7.240;2023-03-12T08:34:28;4.30;99.90
23259;DHT22;11798;51.528;7.240;2023-03-12T08:36:54;4.30;99.90
23259;DHT22;11798;51.528;7.240;2023-03-12T08:39:20;4.40;99.90
23259;DHT22;11798;51.528;7.240;2023-03-12T08:41:46;4.40;99.90
23259;DHT22;11798;51.528;7.240;2023-03-12T08:44:12;4.50;99.90
23259;DHT22;11798;51.528;7.240;2023-03-12T08:46:37;4.50;99.90
23259;DHT22;11798;51.528;7.240;2023-03-12T08:49:03;4.50;99.90
23259;DHT22;11798;51.528;7.240;2023-03-12T08:51:29;4.60;99.90
23259;DHT22;11798;51.528;7.240;2023-03-12T08:53:54;4.70;99.90
23259;DHT22;11798;51.528;7.240;2023-03-12T08:56:21;4.70;99.90
23259;DHT22;11798;51.528;7.240;2023-03-12T08:58:47;4.70;99.90
23259;DHT22;11798;51.528;7.240;2023-03-12T09:01:13;4.70;99.90
23259;DHT22;11798;51.528;7.240;2023-03-12T09:03:39;4.80;99.90
23259;DHT22;11798;51.528;7.240;2023-03-12T09:06:10;4.80;99.90
23259;DHT22;11798;51.528;7.240;2023-03-12T09:08:39;5.00;99.90
23259;DHT22;11798;51.528;7.240;2023-03-12T09:11:07;5.00;99.90
23259;DHT22;11798;51.528;7.240;2023-03-12T09:13:33;5.10;99.90
23259;DHT22;11798;51.528;7.240;2023-03-12T09:16:00;5.10;99.90
23259;DHT22;11798;51.528;7.240;2023-03-12T09:18:27;5.20;99.90
23259;DHT22;11798;51.528;7.240;2023-03-12T09:20:53;5.30;99.90
23259;DHT22;11798;51.528;7.240;2023-03-12T09:23:19;5.30;99.90
23259;DHT22;11798;51.528;7.240;2023-03-12T09:25:45;5.30;99.90
23259;DHT22;11798;51.528;7.240;2023-03-12T09:28:11;5.40;99.90
23259;DHT22;11798;51.528;7.240;2023-03-12T09:30:37;5.50;99.90
23259;DHT22;11798;51.528;7.240;2023-03-12T09:33:03;5.50;99.90
23259;DHT22;11798;51.528;7.240;2023-03-12T09:35:28;5.50;99.90
23259;DHT22;11798;51.528;7.240;2023-03-12T09:37:56;5.50;99.90
23259;DHT22;11798;51.528;7.240;2023-03-12T09:40:25;5.50;99.90
23259;DHT22;11798;51.528;7.240;2023-03-12T09:42:58;5.50;99.90
23259;DHT22;11798;51.528;7.240;2023-03-12T09:45:31;5.50;99.90
23259;DHT22;11798;51.528;7.240;2023-03-12T09:48:03;5.40;99.90
23259;DHT22;11798;51.528;7.240;2023-03-12T09:50:42;5.50;99.90
23259;DHT22;11798;51.528;7.240;2023-03-12T09:55:44;5.60;99.90
23259;DHT22;11798;51.528;7.240;2023-03-12T10:00:44;5.40;99.90
23259;DHT22;11798;51.528;7.240;2023-03-12T10:06:15;5.50;99.90
23259;DHT22;11798;51.528;7.240;2023-03-12T10:26:33;5.50;99.90
23259;DHT22;11798;51.528;7.240;2023-03-12T10:28:49;5.70;99.90
23259;DHT22;11798;51.528;7.240;2023-03-12T10:31:41;5.80;99.90
23259;DHT22;11798;51.528;7.240;2023-03-12T10:34:41;5.90;99.90
23259;DHT22;11798;51.528;7.240;2023-03-12T10:39:43;5.90;99.90
23259;DHT22;11798;51.528;7.240;2023-03-12T10:42:18;5.90;99.90
23259;DHT22;11798;51.528;7.240;2023-03-12T10:44:46;6.00;99.90
23259;DHT22;11798;51.528;7.240;2023-03-12T10:47:24;6.10;99.90
23259;DHT22;11798;51.528;7.240;2023-03-12T10:49:51;6.10;99.90
23259;DHT22;11798;51.528;7.240;2023-03-12T10:52:22;6.00;99.90
23259;DHT22;11798;51.528;7.240;2023-03-12T10:54:52;6.10;99.90
23259;DHT22;11798;51.528;7.240;2023-03-12T10:57:18;6.20;99.90
23259;DHT22;11798;51.528;7.240;2023-03-12T10:59:47;6.20;99.90
23259;DHT22;11798;51.528;7.240;2023-03-12T11:02:40;6.20;99.90
23259;DHT22;11798;51.528;7.240;2023-03-12T11:05:29;6.20;99.90
23259;DHT22;11798;51.528;7.240;2023-03-12T11:07:56;6.20;99.90
23259;DHT22;11798;51.528;7.240;2023-03-12T11:10:42;6.30;99.90
23259;DHT22;11798;51.528;7.240;2023-03-12T11:13:26;6.30;99.90
23259;DHT22;11798;51.528;7.240;2023-03-12T11:15:53;6.40;99.90
23259;DHT22;11798;51.528;7.240;2023-03-12T11:18:24;6.30;99.90
23259;DHT22;11798;51.528;7.240;2023-03-12T11:21:12;6.30;99.90
23259;DHT22;11798;51.528;7.240;2023-03-12T11:24:01;6.40;99.90
23259;DHT22;11798;51.528;7.240;2023-03-12T11:26:50;6.50;99.90
23259;DHT22;11798;51.528;7.240;2023-03-12T11:29:35;6.60;99.90
23259;DHT22;11798;51.528;7.240;2023-03-12T11:34:37;6.60;99.90
23259;DHT22;11798;51.528;7.240;2023-03-12T11:37:11;6.60;99.90
23259;DHT22;11798;51.528;7.240;2023-03-12T11:42:37;6.60;99.90
23259;DHT22;11798;51.528;7.240;2023-03-12T11:45:17;6.70;99.90
23259;DHT22;11798;51.528;7.240;2023-03-12T11:56:35;7.00;99.90
23259;DHT22;11798;51.528;7.240;2023-03-12T12:12:37;7.30;99.90
23259;DHT22;11798;51.528;7.240;2023-03-12T12:15:41;7.40;99.90
23259;DHT22;11798;51.528;7.240;2023-03-12T12:24:12;7.60;99.90
23259;DHT22;11798;51.528;7.240;2023-03-12T12:27:10;7.70;99.90
23259;DHT22;11798;51.528;7.240;2023-03-12T12:32:15;7.80;99.90
23259;DHT22;11798;51.528;7.240;2023-03-12T12:35:03;7.90;99.90
23259;DHT22;11798;51.528;7.240;2023-03-12T12:40:20;8.00;99.90
23259;DHT22;11798;51.528;7.240;2023-03-12T12:45:40;8.10;99.90
23259;DHT22;11798;51.528;7.240;2023-03-12T12:48:11;8.40;99.90
23259;DHT22;11798;51.528;7.240;2023-03-12T12:50:38;8.50;99.90
23259;DHT22;11798;51.528;7.240;2023-03-12T12:53:34;8.70;99.90
23259;DHT22;11798;51.528;7.240;2023-03-12T12:56:18;8.80;99.90
23259;DHT22;11798;51.528;7.240;2023-03-12T13:01:25;8.80;99.90
23259;DHT22;11798;51.528;7.240;2023-03-12T13:03:58;8.70;99.90
23259;DHT22;11798;51.528;7.240;2023-03-12T13:06:27;8.70;99.90
23259;DHT22;11798;51.528;7.240;2023-03-12T13:09:00;8.80;99.90
23259;DHT22;11798;51.528;7.240;2023-03-12T13:11:38;8.70;99.90
23259;DHT22;11798;51.528;7.240;2023-03-12T13:16:48;8.80;99.90
23259;DHT22;11798;51.528;7.240;2023-03-12T13:27:40;9.00;99.90
23259;DHT22;11798;51.528;7.240;2023-03-12T13:30:48;9.20;99.90
23259;DHT22;11798;51.528;7.240;2023-03-12T13:33:19;9.30;99.90
23259;DHT22;11798;51.528;7.240;2023-03-12T13:36:08;9.40;99.90
23259;DHT22;11798;51.528;7.240;2023-03-12T13:39:27;9.50;99.90
23259;DHT22;11798;51.528;7.240;2023-03-12T13:41:48;9.70;99.90
23259;DHT22;11798;51.528;7.240;2023-03-12T13:44:38;9.90;99.90
23259;DHT22;11798;51.528;7.240;2023-03-12T13:47:28;9.80;99.90
23259;DHT22;11798;51.528;7.240;2023-03-12T13:50:13;9.90;99.90
23259;DHT22;11798;51.528;7.240;2023-03-12T13:53:14;9.80;99.90
23259;DHT22;11798;51.528;7.240;2023-03-12T13:55:48;9.90;99.90
23259;DHT22;11798;51.528;7.240;2023-03-12T13:58:27;10.10;99.90
23259;DHT22;11798;51.528;7.240;2023-03-12T14:01:01;10.20;99.90
23259;DHT22;11798;51.528;7.240;2023-03-12T14:03:47;10.30;99.90
23259;DHT22;11798;51.528;7.240;2023-03-12T14:06:28;10.40;99.90
23259;DHT22;11798;51.528;7.240;2023-03-12T14:12:03;10.50;99.90
23259;DHT22;11798;51.528;7.240;2023-03-12T14:17:29;10.80;99.90
23259;DHT22;11798;51.528;7.240;2023-03-12T14:22:24;10.80;99.90
23259;DHT22;11798;51.528;7.240;2023-03-12T14:24:57;10.80;99.90
23259;DHT22;11798;51.528;7.240;2023-03-12T14:27:30;10.70;99.90
23259;DHT22;11798;51.528;7.240;2023-03-12T14:30:24;10.70;99.90
23259;DHT22;11798;51.528;7.240;2023-03-12T14:33:02;10.70;99.90
23259;DHT22;11798;51.528;7.240;2023-03-12T14:35:48;10.80;99.90
23259;DHT22;11798;51.528;7.240;2023-03-12T14:38:29;10.70;99.90
23259;DHT22;11798;51.528;7.240;2023-03-12T14:41:06;10.70;99.90
23259;DHT22;11798;51.528;7.240;2023-03-12T14:43:40;10.60;99.90
23259;DHT22;11798;51.528;7.240;2023-03-12T14:46:15;10.70;99.90
23259;DHT22;11798;51.528;7.240;2023-03-12T14:48:42;10.60;99.90
23259;DHT22;11798;51.528;7.240;2023-03-12T14:51:27;10.60;99.90
23259;DHT22;11798;51.528;7.240;2023-03-12T14:53:53;10.50;99.90
23259;DHT22;11798;51.528;7.240;2023-03-12T14:56:34;10.50;99.90
23259;DHT22;11798;51.528;7.240;2023-03-12T14:59:24;10.60;99.90
23259;DHT22;11798;51.528;7.240;2023-03-12T15:01:57;10.60;99.90
23259;DHT22;11798;51.528;7.240;2023-03-12T15:04:24;10.60;99.90
23259;DHT22;11798;51.528;7.240;2023-03-12T15:06:55;10.60;99.90
23259;DHT22;11798;51.528;7.240;2023-03-12T15:09:26;10.60;99.90
23259;DHT22;11798;51.528;7.240;2023-03-12T15:11:59;10.60;99.90
23259;DHT22;11798;51.528;7.240;2023-03-12T15:14:27;10.60;99.90
23259;DHT22;11798;51.528;7.240;2023-03-12T15:16:54;10.50;99.90
23259;DHT22;11798;51.528;7.240;2023-03-12T15:19:29;10.50;99.90
23259;DHT22;11798;51.528;7.240;2023-03-12T15:21:55;10.40;99.90
23259;DHT22;11798;51.528;7.240;2023-03-12T15:24:21;10.50;99.90
23259;DHT22;11798;51.528;7.240;2023-03-12T15:26:47;10.50;99.90
23259;DHT22;11798;51.528;7.240;2023-03-12T15:29:24;10.40;99.90
23259;DHT22;11798;51.528;7.240;2023-03-12T15:31:57;10.50;99.90
23259;DHT22;11798;51.528;7.240;2023-03-12T15:34:36;10.40;99.90
23259;DHT22;11798;51.528;7.240;2023-03-12T15:37:18;10.40;99.90
23259;DHT22;11798;51.528;7.240;2023-03-12T15:39:52;10.40;99.90
23259;DHT22;11798;51.528;7.240;2023-03-12T15:42:21;10.40;99.90
23259;DHT22;11798;51.528;7.240;2023-03-12T15:44:51;10.40;99.90
23259;DHT22;11798;51.528;7.240;2023-03-12T15:47:24;10.40;99.90
23259;DHT22;11798;51.528;7.240;2023-03-12T15:49:54;10.40;99.90
23259;DHT22;11798;51.528;7.240;2023-03-12T15:57:49;10.40;99.90
23259;DHT22;11798;51.528;7.240;2023-03-12T16:02:59;10.40;99.90
23259;DHT22;11798;51.528;7.240;2023-03-12T16:05:36;10.40;99.90
23259;DHT22;11798;51.528;7.240;2023-03-12T16:10:38;10.30;99.90
23259;DHT22;11798;51.528;7.240;2023-03-12T16:13:04;10.30;99.90
23259;DHT22;11798;51.528;7.240;2023-03-12T16:15:36;10.30;99.90
23259;DHT22;11798;51.528;7.240;2023-03-12T16:18:02;10.30;99.90
23259;DHT22;11798;51.528;7.240;2023-03-12T16:20:28;10.30;99.90
23259;DHT22;11798;51.528;7.240;2023-03-12T16:22:54;10.30;99.90
23259;DHT22;11798;51.528;7.240;2023-03-12T16:25:21;10.40;99.90
23259;DHT22;11798;51.528;7.240;2023-03-12T16:27:50;10.40;99.90
23259;DHT22;11798;51.528;7.240;2023-03-12T16:30:32;10.40;99.90
23259;DHT22;11798;51.528;7.240;2023-03-12T16:32:59;10.40;99.90
23259;DHT22;11798;51.528;7.240;2023-03-12T16:35:26;10.30;99.90
23259;DHT22;11798;51.528;7.240;2023-03-12T16:37:53;10.40;99.90
23259;DHT22;11798;51.528;7.240;2023-03-12T16:40:19;10.40;99.90
23259;DHT22;11798;51.528;7.240;2023-03-12T16:42:49;10.30;99.90
23259;DHT22;11798;51.528;7.240;2023-03-12T16:45:16;10.30;99.90
23259;DHT22;11798;51.528;7.240;2023-03-12T16:47:43;10.30;99.90
23259;DHT22;11798;51.528;7.240;2023-03-12T16:50:16;10.30;99.90
23259;DHT22;11798;51.528;7.240;2023-03-12T16:52:42;10.30;99.90
23259;DHT22;11798;51.528;7.240;2023-03-12T16:55:08;10.30;99.90
23259;DHT22;11798;51.528;7.240;2023-03-12T16:57:36;10.20;99.90
23259;DHT22;11798;51.528;7.240;2023-03-12T17:00:04;10.20;99.90
23259;DHT22;11798;51.528;7.240;2023-03-12T17:02:33;10.20;99.90
23259;DHT22;11798;51.528;7.240;2023-03-12T17:04:59;10.20;99.90
23259;DHT22;11798;51.528;7.240;2023-03-12T17:07:25;10.20;99.90
23259;DHT22;11798;51.528;7.240;2023-03-12T17:09:51;10.10;99.90
23259;DHT22;11798;51.528;7.240;2023-03-12T17:12:31;10.10;99.90
23259;DHT22;11798;51.528;7.240;2023-03-12T17:14:58;10.10;99.90
23259;DHT22;11798;51.528;7.240;2023-03-12T17:17:24;10.10;99.90
23259;DHT22;11798;51.528;7.240;2023-03-12T17:19:50;10.10;99.90
23259;DHT22;11798;51.528;7.240;2023-03-12T17:22:17;10.00;99.90
23259;DHT22;11798;51.528;7.240;2023-03-12T17:24:43;10.00;99.90
23259;DHT22;11798;51.528;7.240;2023-03-12T17:27:09;10.00;99.90
23259;DHT22;11798;51.528;7.240;2023-03-12T17:29:35;10.00;99.90
23259;DHT22;11798;51.528;7.240;2023-03-12T17:32:01;9.90;99.90
23259;DHT22;11798;51.528;7.240;2023-03-12T17:34:26;9.90;99.90
23259;DHT22;11798;51.528;7.240;2023-03-12T17:36:52;9.90;99.90
23259;DHT22;11798;51.528;7.240;2023-03-12T17:39:18;9.90;99.90
23259;DHT22;11798;51.528;7.240;2023-03-12T17:41:43;9.90;99.90
23259;DHT22;11798;51.528;7.240;2023-03-12T17:44:09;9.90;99.90
23259;DHT22;11798;51.528;7.240;2023-03-12T17:46:36;9.90;99.90
23259;DHT22;11798;51.528;7.240;2023-03-12T17:49:02;9.90;99.90
23259;DHT22;11798;51.528;7.240;2023-03-12T17:51:28;9.90;99.90